sensor_id;sensor_type;location;lat;lon;timestamp;pressure;altitude;pressure_sealevel;temperature;humidity
63954;BME280;50128;52.094;5.232;2022-07-22T00:01:35;102118.0;;;17.0;85.6
63954;BME280;50128;52.094;5.232;2022-07-22T00:03:21;102120.0;;;17.0;84.95
63954;BME280;50128;52.094;5.232;2022-07-22T00:05:08;102122.0;;;16.98;86.7
63954;BME280;50128;52.094;5.232;2022-07-22T00:06:55;102124.0;;;16.98;85.93
63954;BME280;50128;52.094;5.232;2022-07-22T00:08:41;102124.0;;;16.97;86.03
63954;BME280;50128;52.094;5.232;2022-07-22T00:10:28;102123.0;;;17.04;87.08
63954;BME280;50128;52.094;5.232;2022-07-22T00:14:01;102124.0;;;17.05;86.96
63954;BME280;50128;52.094;5.232;2022-07-22T00:15:48;102122.0;;;16.95;86.16
63954;BME280;50128;52.094;5.232;2022-07-22T00:17:36;102121.0;;;17.0;84.95
63954;BME280;50128;52.094;5.232;2022-07-22T00:19:24;102119.0;;;17.04;85.49
63954;BME280;50128;52.094;5.232;2022-07-22T00:21:13;102113.0;;;17.02;86.35
63954;BME280;50128;52.094;5.232;2022-07-22T00:22:59;102113.0;;;17.05;85.06
63954;BME280;50128;52.094;5.232;2022-07-22T00:26:32;102111.0;;;17.25;83.28
63954;BME280;50128;52.094;5.232;2022-07-22T00:28:19;102109.0;;;17.27;82.7
63954;BME280;50128;52.094;5.232;2022-07-22T00:30:07;102110.0;;;17.25;83.55
63954;BME280;50128;52.094;5.232;2022-07-22T00:31:54;102108.0;;;17.2;82.58
63954;BME280;50128;52.094;5.232;2022-07-22T00:33:42;102112.0;;;17.09;83.69
63954;BME280;50128;52.094;5.232;2022-07-22T00:37:15;102112.0;;;17.16;83.63
63954;BME280;50128;52.094;5.232;2022-07-22T00:39:02;102115.0;;;17.16;83.17
63954;BME280;50128;52.094;5.232;2022-07-22T00:40:49;102117.0;;;17.11;85.42
63954;BME280;50128;52.094;5.232;2022-07-22T00:42:36;102107.0;;;17.21;83.93
63954;BME280;50128;52.094;5.232;2022-07-22T00:44:23;102112.0;;;17.12;83.95
63954;BME280;50128;52.094;5.232;2022-07-22T00:46:09;102102.0;;;17.23;81.41
63954;BME280;50128;52.094;5.232;2022-07-22T00:49:41;102105.0;;;17.27;81.55
63954;BME280;50128;52.094;5.232;2022-07-22T00:51:28;102107.0;;;17.11;82.72
63954;BME280;50128;52.094;5.232;2022-07-22T00:53:16;102103.0;;;17.14;83.02
63954;BME280;50128;52.094;5.232;2022-07-22T00:55:05;102103.0;;;17.13;83.47
63954;BME280;50128;52.094;5.232;2022-07-22T00:56:52;102097.0;;;17.16;81.75
63954;BME280;50128;52.094;5.232;2022-07-22T00:58:39;102097.0;;;17.11;83.89
63954;BME280;50128;52.094;5.232;2022-07-22T01:02:13;102094.0;;;17.41;81.52
63954;BME280;50128;52.094;5.232;2022-07-22T01:04:00;102094.0;;;17.25;81.69
63954;BME280;50128;52.094;5.232;2022-07-22T01:05:47;102097.0;;;17.12;83.1
63954;BME280;50128;52.094;5.232;2022-07-22T01:07:33;102102.0;;;17.07;83.19
63954;BME280;50128;52.094;5.232;2022-07-22T01:09:20;102101.0;;;16.97;83.95
63954;BME280;50128;52.094;5.232;2022-07-22T01:11:08;102094.0;;;17.06;83.33
63954;BME280;50128;52.094;5.232;2022-07-22T01:14:41;102101.0;;;17.05;85.66
63954;BME280;50128;52.094;5.232;2022-07-22T01:16:29;102101.0;;;17.02;83.34
63954;BME280;50128;52.094;5.232;2022-07-22T01:18:15;102098.0;;;17.04;83.14
63954;BME280;50128;52.094;5.232;2022-07-22T01:20:03;102090.0;;;17.16;82.69
63954;BME280;50128;52.094;5.232;2022-07-22T01:21:50;102096.0;;;17.05;84.59
63954;BME280;50128;52.094;5.232;2022-07-22T01:25:24;102097.0;;;17.02;84.54
63954;BME280;50128;52.094;5.232;2022-07-22T01:27:12;102098.0;;;17.02;84.8
63954;BME280;50128;52.094;5.232;2022-07-22T01:28:58;102094.0;;;17.18;83.49
63954;BME280;50128;52.094;5.232;2022-07-22T01:30:44;102092.0;;;17.07;84.54
63954;BME280;50128;52.094;5.232;2022-07-22T01:32:30;102093.0;;;17.03;86.31
63954;BME280;50128;52.094;5.232;2022-07-22T01:34:16;102086.0;;;17.07;85.5
63954;BME280;50128;52.094;5.232;2022-07-22T01:37:51;102090.0;;;17.2;83.83
63954;BME280;50128;52.094;5.232;2022-07-22T01:39:37;102091.0;;;17.02;84.62
63954;BME280;50128;52.094;5.232;2022-07-22T01:41:23;102088.0;;;17.16;83.92
63954;BME280;50128;52.094;5.232;2022-07-22T01:43:10;102086.0;;;17.0;84.69
63954;BME280;50128;52.094;5.232;2022-07-22T01:44:56;102085.0;;;17.07;83.84
63954;BME280;50128;52.094;5.232;2022-07-22T01:46:42;102094.0;;;17.03;84.42
63954;BME280;50128;52.094;5.232;2022-07-22T01:50:16;102093.0;;;17.16;82.78
63954;BME280;50128;52.094;5.232;2022-07-22T01:52:02;102096.0;;;17.07;83.02
63954;BME280;50128;52.094;5.232;2022-07-22T01:53:50;102089.0;;;17.07;84.21
63954;BME280;50128;52.094;5.232;2022-07-22T01:55:37;102085.0;;;17.09;83.32
63954;BME280;50128;52.094;5.232;2022-07-22T01:57:24;102082.0;;;17.05;82.48
63954;BME280;50128;52.094;5.232;2022-07-22T01:59:11;102080.0;;;17.13;82.44
63954;BME280;50128;52.094;5.232;2022-07-22T02:02:45;102080.0;;;17.04;83.58
63954;BME280;50128;52.094;5.232;2022-07-22T02:04:32;102080.0;;;17.06;84.05
63954;BME280;50128;52.094;5.232;2022-07-22T02:06:18;102080.0;;;17.06;83.0
63954;BME280;50128;52.094;5.232;2022-07-22T02:08:08;102082.0;;;17.18;82.41
63954;BME280;50128;52.094;5.232;2022-07-22T02:09:55;102083.0;;;17.11;82.69
63954;BME280;50128;52.094;5.232;2022-07-22T02:13:29;102084.0;;;17.0;83.74
63954;BME280;50128;52.094;5.232;2022-07-22T02:15:15;102076.0;;;17.07;82.47
63954;BME280;50128;52.094;5.232;2022-07-22T02:17:01;102073.0;;;17.05;82.12
63954;BME280;50128;52.094;5.232;2022-07-22T02:18:48;102070.0;;;17.06;83.35
63954;BME280;50128;52.094;5.232;2022-07-22T02:20:35;102067.0;;;16.98;83.54
63954;BME280;50128;52.094;5.232;2022-07-22T02:22:22;102067.0;;;17.0;83.79
63954;BME280;50128;52.094;5.232;2022-07-22T02:25:55;102065.0;;;16.98;82.96
63954;BME280;50128;52.094;5.232;2022-07-22T02:27:42;102067.0;;;17.09;81.09
63954;BME280;50128;52.094;5.232;2022-07-22T02:29:28;102065.0;;;17.02;81.92
63954;BME280;50128;52.094;5.232;2022-07-22T02:31:14;102066.0;;;17.03;83.05
63954;BME280;50128;52.094;5.232;2022-07-22T02:33:01;102067.0;;;17.13;83.5
63954;BME280;50128;52.094;5.232;2022-07-22T02:34:48;102062.0;;;17.06;81.99
63954;BME280;50128;52.094;5.232;2022-07-22T02:38:20;102060.0;;;17.0;82.55
63954;BME280;50128;52.094;5.232;2022-07-22T02:40:08;102060.0;;;17.0;81.99
63954;BME280;50128;52.094;5.232;2022-07-22T02:41:55;102061.0;;;16.98;83.74
63954;BME280;50128;52.094;5.232;2022-07-22T02:43:41;102058.0;;;17.02;81.61
63954;BME280;50128;52.094;5.232;2022-07-22T02:45:28;102067.0;;;16.96;81.96
63954;BME280;50128;52.094;5.232;2022-07-22T02:49:01;102068.0;;;16.97;80.84
63954;BME280;50128;52.094;5.232;2022-07-22T02:50:49;102072.0;;;17.04;81.89
63954;BME280;50128;52.094;5.232;2022-07-22T02:52:36;102070.0;;;17.09;81.55
63954;BME280;50128;52.094;5.232;2022-07-22T02:54:22;102068.0;;;17.0;81.81
63954;BME280;50128;52.094;5.232;2022-07-22T02:56:10;102068.0;;;17.05;82.13
63954;BME280;50128;52.094;5.232;2022-07-22T02:57:56;102071.0;;;17.03;81.87
63954;BME280;50128;52.094;5.232;2022-07-22T03:01:29;102067.0;;;16.95;82.47
63954;BME280;50128;52.094;5.232;2022-07-22T03:03:15;102064.0;;;16.95;81.58
63954;BME280;50128;52.094;5.232;2022-07-22T03:05:02;102063.0;;;16.98;82.53
63954;BME280;50128;52.094;5.232;2022-07-22T03:06:49;102062.0;;;16.96;83.5
63954;BME280;50128;52.094;5.232;2022-07-22T03:08:36;102061.0;;;17.03;81.84
63954;BME280;50128;52.094;5.232;2022-07-22T03:10:23;102059.0;;;17.02;83.08
63954;BME280;50128;52.094;5.232;2022-07-22T03:13:56;102062.0;;;17.09;81.99
63954;BME280;50128;52.094;5.232;2022-07-22T03:15:42;102062.0;;;17.2;80.59
63954;BME280;50128;52.094;5.232;2022-07-22T03:17:33;102060.0;;;17.25;81.11
63954;BME280;50128;52.094;5.232;2022-07-22T03:19:20;102059.0;;;17.3;80.31
63954;BME280;50128;52.094;5.232;2022-07-22T03:21:06;102058.0;;;17.2;80.28
63954;BME280;50128;52.094;5.232;2022-07-22T03:22:52;102062.0;;;17.16;79.7
63954;BME280;50128;52.094;5.232;2022-07-22T03:26:26;102060.0;;;17.09;80.22
63954;BME280;50128;52.094;5.232;2022-07-22T03:28:12;102063.0;;;17.2;79.87
63954;BME280;50128;52.094;5.232;2022-07-22T03:29:58;102065.0;;;17.25;77.84
63954;BME280;50128;52.094;5.232;2022-07-22T03:31:44;102069.0;;;17.2;78.09
63954;BME280;50128;52.094;5.232;2022-07-22T03:33:30;102071.0;;;17.22;79.78
63954;BME280;50128;52.094;5.232;2022-07-22T03:37:02;102067.0;;;17.03;81.02
63954;BME280;50128;52.094;5.232;2022-07-22T03:38:49;102074.0;;;17.2;79.27
63954;BME280;50128;52.094;5.232;2022-07-22T03:40:35;102072.0;;;17.27;79.16
63954;BME280;50128;52.094;5.232;2022-07-22T03:42:21;102069.0;;;17.07;80.3
63954;BME280;50128;52.094;5.232;2022-07-22T03:44:07;102068.0;;;17.0;81.81
63954;BME280;50128;52.094;5.232;2022-07-22T03:45:53;102067.0;;;17.0;81.45
63954;BME280;50128;52.094;5.232;2022-07-22T03:49:30;102069.0;;;17.04;82.08
63954;BME280;50128;52.094;5.232;2022-07-22T03:51:17;102072.0;;;16.95;82.15
63954;BME280;50128;52.094;5.232;2022-07-22T03:53:03;102066.0;;;16.95;82.91
63954;BME280;50128;52.094;5.232;2022-07-22T03:54:49;102068.0;;;17.0;82.31
63954;BME280;50128;52.094;5.232;2022-07-22T03:56:36;102066.0;;;16.95;83.42
63954;BME280;50128;52.094;5.232;2022-07-22T04:00:09;102062.0;;;16.93;81.67
63954;BME280;50128;52.094;5.232;2022-07-22T04:01:56;102068.0;;;16.9;82.02
63954;BME280;50128;52.094;5.232;2022-07-22T04:03:42;102064.0;;;16.93;81.28
63954;BME280;50128;52.094;5.232;2022-07-22T04:05:28;102062.0;;;16.97;80.53
63954;BME280;50128;52.094;5.232;2022-07-22T04:07:14;102061.0;;;16.93;80.89
63954;BME280;50128;52.094;5.232;2022-07-22T04:09:01;102062.0;;;16.97;80.84
63954;BME280;50128;52.094;5.232;2022-07-22T04:12:37;102061.0;;;17.09;80.86
63954;BME280;50128;52.094;5.232;2022-07-22T04:14:24;102065.0;;;17.14;79.72
63954;BME280;50128;52.094;5.232;2022-07-22T04:16:10;102065.0;;;17.18;77.66
63954;BME280;50128;52.094;5.232;2022-07-22T04:17:56;102066.0;;;17.25;76.61
63954;BME280;50128;52.094;5.232;2022-07-22T04:19:43;102068.0;;;17.13;76.44
63954;BME280;50128;52.094;5.232;2022-07-22T04:21:30;102064.0;;;17.2;75.33
63954;BME280;50128;52.094;5.232;2022-07-22T04:25:05;102062.0;;;17.09;75.66
63954;BME280;50128;52.094;5.232;2022-07-22T04:26:51;102059.0;;;17.25;74.02
63954;BME280;50128;52.094;5.232;2022-07-22T04:28:37;102061.0;;;17.2;73.41
63954;BME280;50128;52.094;5.232;2022-07-22T04:30:23;102060.0;;;17.2;74.3
63954;BME280;50128;52.094;5.232;2022-07-22T04:32:09;102062.0;;;17.11;77.75
63954;BME280;50128;52.094;5.232;2022-07-22T04:35:44;102059.0;;;17.09;77.19
63954;BME280;50128;52.094;5.232;2022-07-22T04:37:30;102055.0;;;17.04;79.08
63954;BME280;50128;52.094;5.232;2022-07-22T04:39:18;102055.0;;;17.2;76.91
63954;BME280;50128;52.094;5.232;2022-07-22T04:41:04;102056.0;;;17.25;74.94
63954;BME280;50128;52.094;5.232;2022-07-22T04:42:51;102058.0;;;17.23;74.87
63954;BME280;50128;52.094;5.232;2022-07-22T04:44:38;102055.0;;;17.32;74.58
63954;BME280;50128;52.094;5.232;2022-07-22T04:48:11;102055.0;;;17.28;75.66
63954;BME280;50128;52.094;5.232;2022-07-22T04:49:57;102052.0;;;17.31;75.83
63954;BME280;50128;52.094;5.232;2022-07-22T04:51:43;102047.0;;;17.41;74.77
63954;BME280;50128;52.094;5.232;2022-07-22T04:53:30;102047.0;;;17.29;75.2
63954;BME280;50128;52.094;5.232;2022-07-22T04:55:16;102047.0;;;17.28;77.03
63954;BME280;50128;52.094;5.232;2022-07-22T04:57:03;102048.0;;;17.27;75.58
63954;BME280;50128;52.094;5.232;2022-07-22T05:00:38;102047.0;;;17.34;74.91
63954;BME280;50128;52.094;5.232;2022-07-22T05:02:24;102047.0;;;17.36;74.42
63954;BME280;50128;52.094;5.232;2022-07-22T05:04:11;102045.0;;;17.34;77.05
63954;BME280;50128;52.094;5.232;2022-07-22T05:05:58;102043.0;;;17.46;75.53
63954;BME280;50128;52.094;5.232;2022-07-22T05:07:45;102042.0;;;17.52;75.06
63954;BME280;50128;52.094;5.232;2022-07-22T05:11:18;102044.0;;;17.43;76.16
63954;BME280;50128;52.094;5.232;2022-07-22T05:13:04;102049.0;;;17.41;76.28
63954;BME280;50128;52.094;5.232;2022-07-22T05:14:51;102048.0;;;17.41;76.58
63954;BME280;50128;52.094;5.232;2022-07-22T05:16:38;102056.0;;;17.47;76.02
63954;BME280;50128;52.094;5.232;2022-07-22T05:18:25;102055.0;;;17.47;76.0
63954;BME280;50128;52.094;5.232;2022-07-22T05:20:12;102053.0;;;17.56;75.95
63954;BME280;50128;52.094;5.232;2022-07-22T05:23:44;102056.0;;;17.63;77.44
63954;BME280;50128;52.094;5.232;2022-07-22T05:25:31;102055.0;;;17.66;74.61
63954;BME280;50128;52.094;5.232;2022-07-22T05:27:18;102055.0;;;17.61;76.41
63954;BME280;50128;52.094;5.232;2022-07-22T05:29:05;102056.0;;;17.61;77.31
63954;BME280;50128;52.094;5.232;2022-07-22T05:30:52;102057.0;;;17.77;75.36
63954;BME280;50128;52.094;5.232;2022-07-22T05:32:38;102061.0;;;17.66;73.72
63954;BME280;50128;52.094;5.232;2022-07-22T05:36:10;102060.0;;;17.73;74.08
63954;BME280;50128;52.094;5.232;2022-07-22T05:37:58;102061.0;;;17.87;74.05
63954;BME280;50128;52.094;5.232;2022-07-22T05:39:45;102058.0;;;17.86;74.08
63954;BME280;50128;52.094;5.232;2022-07-22T05:41:32;102051.0;;;17.86;75.23
63954;BME280;50128;52.094;5.232;2022-07-22T05:43:18;102056.0;;;17.96;75.13
63954;BME280;50128;52.094;5.232;2022-07-22T05:46:53;102060.0;;;17.97;73.24
63954;BME280;50128;52.094;5.232;2022-07-22T05:48:40;102066.0;;;17.95;74.02
63954;BME280;50128;52.094;5.232;2022-07-22T05:50:27;102068.0;;;18.07;73.86
63954;BME280;50128;52.094;5.232;2022-07-22T05:52:14;102066.0;;;18.03;72.86
63954;BME280;50128;52.094;5.232;2022-07-22T05:54:02;102067.0;;;17.97;73.74
63954;BME280;50128;52.094;5.232;2022-07-22T05:55:49;102070.0;;;17.98;75.48
63954;BME280;50128;52.094;5.232;2022-07-22T05:59:22;102070.0;;;18.25;70.52
63954;BME280;50128;52.094;5.232;2022-07-22T06:01:08;102074.0;;;18.22;70.08
63954;BME280;50128;52.094;5.232;2022-07-22T06:02:56;102073.0;;;18.22;69.42
63954;BME280;50128;52.094;5.232;2022-07-22T06:04:42;102072.0;;;18.12;71.2
63954;BME280;50128;52.094;5.232;2022-07-22T06:06:28;102072.0;;;18.16;72.3
63954;BME280;50128;52.094;5.232;2022-07-22T06:08:14;102067.0;;;18.27;70.8
63954;BME280;50128;52.094;5.232;2022-07-22T06:11:47;102068.0;;;18.29;69.41
63954;BME280;50128;52.094;5.232;2022-07-22T06:13:33;102067.0;;;18.27;69.13
63954;BME280;50128;52.094;5.232;2022-07-22T06:15:20;102065.0;;;18.34;69.02
63954;BME280;50128;52.094;5.232;2022-07-22T06:17:06;102071.0;;;18.2;72.55
63954;BME280;50128;52.094;5.232;2022-07-22T06:18:52;102070.0;;;18.12;69.99
63954;BME280;50128;52.094;5.232;2022-07-22T06:22:26;102075.0;;;18.32;68.36
63954;BME280;50128;52.094;5.232;2022-07-22T06:24:12;102072.0;;;18.22;70.78
63954;BME280;50128;52.094;5.232;2022-07-22T06:25:58;102070.0;;;18.37;69.38
63954;BME280;50128;52.094;5.232;2022-07-22T06:27:44;102063.0;;;18.45;68.11
63954;BME280;50128;52.094;5.232;2022-07-22T06:29:30;102058.0;;;18.59;67.58
63954;BME280;50128;52.094;5.232;2022-07-22T06:31:18;102057.0;;;18.59;67.87
63954;BME280;50128;52.094;5.232;2022-07-22T06:34:50;102062.0;;;18.53;68.58
63954;BME280;50128;52.094;5.232;2022-07-22T06:36:36;102058.0;;;18.5;67.5
63954;BME280;50128;52.094;5.232;2022-07-22T06:38:23;102057.0;;;18.59;67.08
63954;BME280;50128;52.094;5.232;2022-07-22T06:40:11;102060.0;;;18.66;67.84
63954;BME280;50128;52.094;5.232;2022-07-22T06:41:58;102058.0;;;18.59;67.35
63954;BME280;50128;52.094;5.232;2022-07-22T06:43:44;102059.0;;;18.73;66.85
63954;BME280;50128;52.094;5.232;2022-07-22T06:47:17;102055.0;;;18.72;69.3
63954;BME280;50128;52.094;5.232;2022-07-22T06:49:04;102052.0;;;18.86;67.97
63954;BME280;50128;52.094;5.232;2022-07-22T06:50:50;102051.0;;;18.89;68.16
63954;BME280;50128;52.094;5.232;2022-07-22T06:52:38;102052.0;;;19.13;65.7
63954;BME280;50128;52.094;5.232;2022-07-22T06:54:26;102055.0;;;19.12;64.44
63954;BME280;50128;52.094;5.232;2022-07-22T06:57:58;102051.0;;;19.05;66.52
63954;BME280;50128;52.094;5.232;2022-07-22T06:59:44;102059.0;;;18.87;66.19
63954;BME280;50128;52.094;5.232;2022-07-22T07:01:30;102060.0;;;18.98;68.56
63954;BME280;50128;52.094;5.232;2022-07-22T07:03:17;102061.0;;;19.16;65.74
63954;BME280;50128;52.094;5.232;2022-07-22T07:05:05;102059.0;;;19.18;66.24
63954;BME280;50128;52.094;5.232;2022-07-22T07:06:51;102059.0;;;19.39;63.76
63954;BME280;50128;52.094;5.232;2022-07-22T07:10:26;102055.0;;;19.32;64.08
63954;BME280;50128;52.094;5.232;2022-07-22T07:12:12;102061.0;;;19.39;63.33
63954;BME280;50128;52.094;5.232;2022-07-22T07:13:58;102059.0;;;19.3;63.68
63954;BME280;50128;52.094;5.232;2022-07-22T07:15:45;102058.0;;;19.43;63.31
63954;BME280;50128;52.094;5.232;2022-07-22T07:17:32;102059.0;;;19.21;65.58
63954;BME280;50128;52.094;5.232;2022-07-22T07:19:19;102058.0;;;19.47;62.32
63954;BME280;50128;52.094;5.232;2022-07-22T07:22:52;102053.0;;;19.68;62.66
63954;BME280;50128;52.094;5.232;2022-07-22T07:24:39;102056.0;;;19.61;61.92
63954;BME280;50128;52.094;5.232;2022-07-22T07:26:26;102061.0;;;19.57;61.7
63954;BME280;50128;52.094;5.232;2022-07-22T07:28:13;102058.0;;;19.52;62.7
63954;BME280;50128;52.094;5.232;2022-07-22T07:29:59;102058.0;;;19.64;62.65
63954;BME280;50128;52.094;5.232;2022-07-22T07:33:33;102056.0;;;19.56;64.16
63954;BME280;50128;52.094;5.232;2022-07-22T07:35:20;102058.0;;;19.82;62.56
63954;BME280;50128;52.094;5.232;2022-07-22T07:37:07;102057.0;;;19.79;61.57
63954;BME280;50128;52.094;5.232;2022-07-22T07:38:53;102053.0;;;19.73;63.21
63954;BME280;50128;52.094;5.232;2022-07-22T07:40:39;102055.0;;;19.86;63.22
63954;BME280;50128;52.094;5.232;2022-07-22T07:42:26;102055.0;;;19.86;61.01
63954;BME280;50128;52.094;5.232;2022-07-22T07:46:00;102056.0;;;19.95;59.91
63954;BME280;50128;52.094;5.232;2022-07-22T07:47:47;102059.0;;;19.87;61.8
63954;BME280;50128;52.094;5.232;2022-07-22T07:49:35;102055.0;;;19.95;60.87
63954;BME280;50128;52.094;5.232;2022-07-22T07:51:22;102058.0;;;20.0;61.45
63954;BME280;50128;52.094;5.232;2022-07-22T07:53:08;102055.0;;;19.84;61.1
63954;BME280;50128;52.094;5.232;2022-07-22T07:54:55;102057.0;;;20.09;61.21
63954;BME280;50128;52.094;5.232;2022-07-22T07:58:29;102060.0;;;19.93;63.95
63954;BME280;50128;52.094;5.232;2022-07-22T08:00:16;102060.0;;;19.8;62.06
63954;BME280;50128;52.094;5.232;2022-07-22T08:02:06;102061.0;;;19.52;62.43
63954;BME280;50128;52.094;5.232;2022-07-22T08:03:53;102058.0;;;19.68;63.09
63954;BME280;50128;52.094;5.232;2022-07-22T08:05:39;102056.0;;;19.55;63.0
63954;BME280;50128;52.094;5.232;2022-07-22T08:07:27;102053.0;;;19.7;61.52
63954;BME280;50128;52.094;5.232;2022-07-22T08:11:00;102056.0;;;19.7;61.1
63954;BME280;50128;52.094;5.232;2022-07-22T08:12:47;102059.0;;;19.57;62.93
63954;BME280;50128;52.094;5.232;2022-07-22T08:14:33;102056.0;;;19.48;64.24
63954;BME280;50128;52.094;5.232;2022-07-22T08:16:20;102055.0;;;19.63;63.14
63954;BME280;50128;52.094;5.232;2022-07-22T08:18:07;102055.0;;;19.64;63.86
63954;BME280;50128;52.094;5.232;2022-07-22T08:21:42;102057.0;;;19.64;62.54
63954;BME280;50128;52.094;5.232;2022-07-22T08:23:28;102060.0;;;19.71;62.13
63954;BME280;50128;52.094;5.232;2022-07-22T08:25:16;102056.0;;;19.59;61.01
63954;BME280;50128;52.094;5.232;2022-07-22T08:27:02;102052.0;;;19.55;61.23
63954;BME280;50128;52.094;5.232;2022-07-22T08:28:50;102048.0;;;19.62;60.31
63954;BME280;50128;52.094;5.232;2022-07-22T08:30:36;102043.0;;;19.59;60.31
63954;BME280;50128;52.094;5.232;2022-07-22T08:34:09;102050.0;;;19.66;60.29
63954;BME280;50128;52.094;5.232;2022-07-22T08:35:57;102053.0;;;19.78;59.73
63954;BME280;50128;52.094;5.232;2022-07-22T08:37:45;102046.0;;;19.66;59.3
63954;BME280;50128;52.094;5.232;2022-07-22T08:39:34;102045.0;;;19.7;60.29
63954;BME280;50128;52.094;5.232;2022-07-22T08:41:21;102050.0;;;19.7;59.52
63954;BME280;50128;52.094;5.232;2022-07-22T08:43:10;102050.0;;;19.66;60.26
63954;BME280;50128;52.094;5.232;2022-07-22T08:46:45;102050.0;;;19.66;61.2
63954;BME280;50128;52.094;5.232;2022-07-22T08:48:31;102044.0;;;19.61;58.43
63954;BME280;50128;52.094;5.232;2022-07-22T08:50:18;102042.0;;;19.79;59.49
63954;BME280;50128;52.094;5.232;2022-07-22T08:52:06;102038.0;;;19.8;59.63
63954;BME280;50128;52.094;5.232;2022-07-22T08:53:52;102036.0;;;19.82;60.84
63954;BME280;50128;52.094;5.232;2022-07-22T08:55:41;102035.0;;;19.95;58.51
63954;BME280;50128;52.094;5.232;2022-07-22T08:59:14;102033.0;;;20.02;57.48
63954;BME280;50128;52.094;5.232;2022-07-22T09:01:07;102030.0;;;20.09;57.77
63954;BME280;50128;52.094;5.232;2022-07-22T09:02:53;102028.0;;;20.2;59.11
63954;BME280;50128;52.094;5.232;2022-07-22T09:04:51;102027.0;;;20.29;57.77
63954;BME280;50128;52.094;5.232;2022-07-22T09:06:48;102028.0;;;20.3;56.95
63954;BME280;50128;52.094;5.232;2022-07-22T09:08:49;102028.0;;;20.25;57.59
63954;BME280;50128;52.094;5.232;2022-07-22T09:10:36;102026.0;;;20.32;55.32
63954;BME280;50128;52.094;5.232;2022-07-22T09:12:24;102027.0;;;20.47;55.23
63954;BME280;50128;52.094;5.232;2022-07-22T09:15:58;102024.0;;;20.54;56.07
63954;BME280;50128;52.094;5.232;2022-07-22T09:17:44;102026.0;;;20.37;54.58
63954;BME280;50128;52.094;5.232;2022-07-22T09:19:34;102021.0;;;20.25;55.48
63954;BME280;50128;52.094;5.232;2022-07-22T09:21:20;102021.0;;;20.37;56.13
63954;BME280;50128;52.094;5.232;2022-07-22T09:23:10;102026.0;;;20.36;55.59
63954;BME280;50128;52.094;5.232;2022-07-22T09:24:58;102028.0;;;20.39;56.31
63954;BME280;50128;52.094;5.232;2022-07-22T09:28:30;102030.0;;;20.25;56.37
63954;BME280;50128;52.094;5.232;2022-07-22T09:30:18;102033.0;;;20.41;55.08
63954;BME280;50128;52.094;5.232;2022-07-22T09:32:06;102028.0;;;20.38;57.83
63954;BME280;50128;52.094;5.232;2022-07-22T09:33:54;102028.0;;;20.39;56.79
63954;BME280;50128;52.094;5.232;2022-07-22T09:35:41;102032.0;;;20.51;54.74
63954;BME280;50128;52.094;5.232;2022-07-22T09:37:28;102032.0;;;20.45;56.08
63954;BME280;50128;52.094;5.232;2022-07-22T09:41:14;102026.0;;;20.57;52.99
63954;BME280;50128;52.094;5.232;2022-07-22T09:43:02;102018.0;;;20.82;53.11
63954;BME280;50128;52.094;5.232;2022-07-22T09:44:50;102022.0;;;20.79;52.22
63954;BME280;50128;52.094;5.232;2022-07-22T09:46:37;102019.0;;;20.84;52.57
63954;BME280;50128;52.094;5.232;2022-07-22T09:48:25;102019.0;;;20.69;53.61
63954;BME280;50128;52.094;5.232;2022-07-22T09:50:16;102018.0;;;20.72;54.06
63954;BME280;50128;52.094;5.232;2022-07-22T09:52:06;102016.0;;;20.7;53.48
63954;BME280;50128;52.094;5.232;2022-07-22T09:55:41;102021.0;;;20.84;52.23
63954;BME280;50128;52.094;5.232;2022-07-22T09:57:27;102026.0;;;20.73;54.1
63954;BME280;50128;52.094;5.232;2022-07-22T09:59:14;102022.0;;;20.81;53.7
63954;BME280;50128;52.094;5.232;2022-07-22T10:01:04;102018.0;;;20.96;52.5
63954;BME280;50128;52.094;5.232;2022-07-22T10:02:53;102018.0;;;20.94;52.74
63954;BME280;50128;52.094;5.232;2022-07-22T10:04:44;102021.0;;;21.03;51.93
63954;BME280;50128;52.094;5.232;2022-07-22T10:08:25;102026.0;;;21.18;51.15
63954;BME280;50128;52.094;5.232;2022-07-22T10:10:12;102026.0;;;21.0;52.67
63954;BME280;50128;52.094;5.232;2022-07-22T10:12:02;102030.0;;;21.16;52.78
63954;BME280;50128;52.094;5.232;2022-07-22T10:13:48;102025.0;;;21.3;51.65
63954;BME280;50128;52.094;5.232;2022-07-22T10:15:37;102032.0;;;21.07;56.12
63954;BME280;50128;52.094;5.232;2022-07-22T10:17:24;102031.0;;;21.05;50.82
63954;BME280;50128;52.094;5.232;2022-07-22T10:19:11;102028.0;;;20.92;50.84
63954;BME280;50128;52.094;5.232;2022-07-22T10:22:53;102030.0;;;21.07;51.96
63954;BME280;50128;52.094;5.232;2022-07-22T10:24:59;102028.0;;;20.83;53.24
63954;BME280;50128;52.094;5.232;2022-07-22T10:26:47;102037.0;;;20.91;52.74
63954;BME280;50128;52.094;5.232;2022-07-22T10:28:36;102044.0;;;20.86;52.41
63954;BME280;50128;52.094;5.232;2022-07-22T10:30:26;102037.0;;;20.86;51.08
63954;BME280;50128;52.094;5.232;2022-07-22T10:32:23;102026.0;;;20.77;51.4
63954;BME280;50128;52.094;5.232;2022-07-22T10:34:10;102025.0;;;20.53;52.17
63954;BME280;50128;52.094;5.232;2022-07-22T10:35:57;102027.0;;;20.65;51.9
63954;BME280;50128;52.094;5.232;2022-07-22T10:40:09;102021.0;;;20.65;53.92
63954;BME280;50128;52.094;5.232;2022-07-22T10:41:56;102024.0;;;20.74;57.27
63954;BME280;50128;52.094;5.232;2022-07-22T10:43:46;102027.0;;;20.71;52.13
63954;BME280;50128;52.094;5.232;2022-07-22T10:45:34;102031.0;;;20.57;54.55
63954;BME280;50128;52.094;5.232;2022-07-22T10:47:51;102027.0;;;20.5;51.74
63954;BME280;50128;52.094;5.232;2022-07-22T10:49:38;102032.0;;;20.52;55.57
63954;BME280;50128;52.094;5.232;2022-07-22T10:51:26;102036.0;;;20.6;54.94
63954;BME280;50128;52.094;5.232;2022-07-22T10:53:14;102032.0;;;20.67;55.23
63954;BME280;50128;52.094;5.232;2022-07-22T10:55:18;102026.0;;;20.74;52.26
63954;BME280;50128;52.094;5.232;2022-07-22T10:57:05;102027.0;;;20.94;52.01
63954;BME280;50128;52.094;5.232;2022-07-22T11:00:43;102024.0;;;21.16;52.18
63954;BME280;50128;52.094;5.232;2022-07-22T11:02:30;102020.0;;;21.21;50.33
63954;BME280;50128;52.094;5.232;2022-07-22T11:04:18;102017.0;;;21.28;50.47
63954;BME280;50128;52.094;5.232;2022-07-22T11:06:15;102019.0;;;21.35;51.3